createdAt,value
2023-03-03T00:01:08.006Z,-2.50
2023-03-03T00:03:36.274Z,-2.60
2023-03-03T00:06:06.012Z,-2.60
2023-03-03T00:08:34.351Z,-2.70
2023-03-03T00:11:06.320Z,-2.70
2023-03-03T00:13:42.942Z,-2.60
2023-03-03T00:16:18.161Z,-2.40
2023-03-03T00:18:48.813Z,-2.40
2023-03-03T00:21:32.498Z,-2.30
2023-03-03T00:24:18.955Z,-2.30
2023-03-03T00:26:51.003Z,-2.50
2023-03-03T00:29:37.091Z,-2.70
2023-03-03T00:32:24.908Z,-2.80
2023-03-03T00:34:55.143Z,-2.70
2023-03-03T00:37:34.548Z,-2.50
2023-03-03T00:40:23.922Z,-2.60
2023-03-03T00:42:56.744Z,-2.70
2023-03-03T00:45:44.441Z,-2.50
2023-03-03T00:48:28.239Z,-2.50
2023-03-03T00:50:58.357Z,-2.70
2023-03-03T00:53:29.124Z,-2.80
2023-03-03T00:55:58.329Z,-2.80
2023-03-03T00:58:28.281Z,-2.70
2023-03-03T01:00:58.850Z,-2.70
2023-03-03T01:03:28.456Z,-2.70
2023-03-03T01:05:56.736Z,-2.40
2023-03-03T01:08:25.456Z,-2.20
2023-03-03T01:10:56.986Z,-2.00
2023-03-03T01:13:31.616Z,-1.80
2023-03-03T01:16:00.081Z,-1.70
2023-03-03T01:18:29.182Z,-1.90
2023-03-03T01:20:57.518Z,-2.00
2023-03-03T01:23:25.573Z,-2.00
2023-03-03T01:25:53.636Z,-2.00
2023-03-03T01:28:22.162Z,-2.10
2023-03-03T01:30:51.894Z,-2.10
2023-03-03T01:33:20.596Z,-2.20
2023-03-03T01:35:49.422Z,-2.40
2023-03-03T01:38:17.935Z,-2.50
2023-03-03T01:40:55.243Z,-2.60
2023-03-03T01:43:24.187Z,-2.70
2023-03-03T01:46:32.768Z,-2.70
2023-03-03T01:49:07.448Z,-2.90
2023-03-03T01:51:42.802Z,-3.00
2023-03-03T01:54:18.243Z,-3.20
2023-03-03T01:56:46.557Z,-3.30
2023-03-03T01:59:19.608Z,-3.40
2023-03-03T02:01:50.603Z,-3.60
2023-03-03T02:04:22.056Z,-3.70
2023-03-03T02:06:57.077Z,-3.90
2023-03-03T02:09:34.313Z,-3.80
2023-03-03T02:12:09.781Z,-3.40
2023-03-03T02:14:38.406Z,-3.40
2023-03-03T02:17:08.251Z,-3.60
2023-03-03T02:19:52.887Z,-3.60
2023-03-03T02:22:34.773Z,-3.60
2023-03-03T02:25:09.187Z,-3.50
2023-03-03T02:27:39.040Z,-3.70
2023-03-03T02:30:15.639Z,-3.80
2023-03-03T02:32:43.775Z,-3.50
2023-03-03T02:35:32.631Z,-3.40
2023-03-03T02:38:15.931Z,-3.30
2023-03-03T02:40:58.964Z,-3.40
2023-03-03T02:43:40.020Z,-3.40
2023-03-03T02:46:08.568Z,-3.60
2023-03-03T02:48:36.721Z,-3.60
2023-03-03T02:51:05.166Z,-3.70
2023-03-03T02:53:33.376Z,-3.80
2023-03-03T02:56:01.660Z,-3.80
2023-03-03T02:58:31.333Z,-3.80
2023-03-03T03:00:59.673Z,-3.90
2023-03-03T03:03:28.165Z,-4.00
2023-03-03T03:05:56.262Z,-4.10
2023-03-03T03:08:24.321Z,-4.00
2023-03-03T03:10:52.607Z,-4.00
2023-03-03T03:13:20.987Z,-4.00
2023-03-03T03:15:50.580Z,-3.90
2023-03-03T03:18:19.065Z,-4.00
2023-03-03T03:20:48.529Z,-4.00
2023-03-03T03:23:17.849Z,-4.00
2023-03-03T03:25:46.601Z,-4.00
2023-03-03T03:28:17.272Z,-3.90
2023-03-03T03:30:45.926Z,-3.80
2023-03-03T03:33:15.659Z,-3.70
2023-03-03T03:35:45.744Z,-3.60
2023-03-03T03:38:14.898Z,-3.40
2023-03-03T03:40:43.931Z,-3.10
2023-03-03T03:43:12.064Z,-2.90
2023-03-03T03:45:40.435Z,-2.70
2023-03-03T03:48:08.585Z,-2.60
2023-03-03T03:50:38.609Z,-2.60
2023-03-03T03:53:08.089Z,-2.70
2023-03-03T03:55:36.181Z,-2.70
2023-03-03T03:58:04.503Z,-2.80
2023-03-03T04:00:33.125Z,-3.00
2023-03-03T04:03:01.287Z,-3.10
2023-03-03T04:05:29.477Z,-3.10
2023-03-03T04:07:58.908Z,-3.20
2023-03-03T04:10:27.223Z,-3.30
2023-03-03T04:12:55.321Z,-3.50
2023-03-03T04:15:23.674Z,-3.60
2023-03-03T04:17:51.822Z,-3.80
2023-03-03T04:20:20.141Z,-3.90
2023-03-03T04:22:48.290Z,-4.00
2023-03-03T04:25:19.096Z,-4.00
2023-03-03T04:27:47.394Z,-4.00
2023-03-03T04:30:17.626Z,-4.00
2023-03-03T04:32:46.026Z,-4.10
2023-03-03T04:35:14.455Z,-4.30
2023-03-03T04:37:42.580Z,-4.30
2023-03-03T04:40:12.638Z,-4.30
2023-03-03T04:42:42.136Z,-4.40
2023-03-03T04:45:11.587Z,-4.40
2023-03-03T04:47:39.924Z,-4.50
2023-03-03T04:50:10.476Z,-4.50
2023-03-03T04:52:39.509Z,-4.50
2023-03-03T04:55:10.572Z,-4.50
2023-03-03T04:57:38.770Z,-4.50
2023-03-03T05:00:10.577Z,-4.60
2023-03-03T05:02:38.678Z,-4.60
2023-03-03T05:05:08.311Z,-4.60
2023-03-03T05:07:37.033Z,-4.50
2023-03-03T05:10:06.170Z,-4.40
2023-03-03T05:12:34.406Z,-4.30
2023-03-03T05:15:02.800Z,-4.30
2023-03-03T05:17:32.386Z,-4.30
2023-03-03T05:20:00.454Z,-4.30
2023-03-03T05:22:28.756Z,-4.50
2023-03-03T05:24:57.669Z,-4.60
2023-03-03T05:27:25.964Z,-4.70
2023-03-03T05:29:54.161Z,-4.80
2023-03-03T05:32:22.359Z,-4.80
2023-03-03T05:34:52.537Z,-4.70
2023-03-03T05:37:20.679Z,-4.60
2023-03-03T05:39:48.806Z,-4.60
2023-03-03T05:42:17.149Z,-4.60
2023-03-03T05:44:45.373Z,-4.60
2023-03-03T05:47:13.565Z,-4.60
2023-03-03T05:49:41.961Z,-4.60
2023-03-03T05:52:12.216Z,-4.60
2023-03-03T05:54:40.424Z,-4.50
2023-03-03T05:57:08.637Z,-4.50
2023-03-03T05:59:36.789Z,-4.40
2023-03-03T06:02:04.996Z,-4.20
2023-03-03T06:04:33.140Z,-4.20
2023-03-03T06:07:01.317Z,-4.40
2023-03-03T06:09:31.051Z,-4.50
2023-03-03T06:11:59.167Z,-4.60
2023-03-03T06:14:27.443Z,-4.50
2023-03-03T06:16:55.651Z,-4.40
2023-03-03T06:19:23.789Z,-4.40
2023-03-03T06:21:52.005Z,-4.40
2023-03-03T06:24:20.240Z,-4.20
2023-03-03T06:26:49.753Z,-4.10
2023-03-03T06:29:17.863Z,-4.00
2023-03-03T06:31:46.049Z,-3.80
2023-03-03T06:34:14.218Z,-3.60
2023-03-03T06:36:42.388Z,-3.30
2023-03-03T06:39:10.598Z,-3.10
2023-03-03T06:41:38.968Z,-2.80
2023-03-03T06:44:08.513Z,-2.70
2023-03-03T06:46:36.639Z,-2.60
2023-03-03T06:49:04.962Z,-2.40
2023-03-03T06:51:38.422Z,-2.30
2023-03-03T06:54:14.099Z,-2.30
2023-03-03T06:56:44.170Z,-2.20
2023-03-03T06:59:17.529Z,-2.20
2023-03-03T07:01:48.341Z,-2.20
2023-03-03T07:04:28.899Z,-2.30
2023-03-03T07:06:58.495Z,-2.30
2023-03-03T07:09:30.572Z,-2.10
2023-03-03T07:12:04.304Z,-1.90
2023-03-03T07:14:38.654Z,-1.80
2023-03-03T07:17:12.117Z,-1.70
2023-03-03T07:19:41.217Z,-1.60
2023-03-03T07:22:17.078Z,-1.50
2023-03-03T07:24:47.707Z,-1.50
2023-03-03T07:27:27.782Z,-1.30
2023-03-03T07:30:21.367Z,-1.20
2023-03-03T07:32:50.011Z,-1.10
2023-03-03T07:35:39.718Z,-0.90
2023-03-03T07:38:25.194Z,-0.80
2023-03-03T07:40:56.807Z,-0.60
2023-03-03T07:43:50.714Z,-0.50
2023-03-03T07:46:29.746Z,-0.40
2023-03-03T07:48:59.711Z,-0.20
2023-03-03T07:51:37.691Z,-0.10
2023-03-03T07:54:28.923Z,0.00
2023-03-03T07:56:59.046Z,0.20
2023-03-03T07:59:28.267Z,0.30
2023-03-03T08:02:00.554Z,0.60
2023-03-03T08:04:38.907Z,1.70
2023-03-03T08:07:17.472Z,3.20
2023-03-03T08:09:49.627Z,4.70
2023-03-03T08:12:42.791Z,5.70
2023-03-03T08:15:24.255Z,6.50
2023-03-03T08:17:57.099Z,6.70
2023-03-03T08:20:46.894Z,7.10
2023-03-03T08:23:18.031Z,7.80
2023-03-03T08:25:47.429Z,8.10
2023-03-03T08:28:16.689Z,8.30
2023-03-03T08:30:46.216Z,8.50
2023-03-03T08:33:17.012Z,8.50
2023-03-03T08:35:46.313Z,8.40
2023-03-03T08:38:18.599Z,8.90
2023-03-03T08:40:47.308Z,9.10
2023-03-03T08:43:17.401Z,9.10
2023-03-03T08:45:47.966Z,8.90
2023-03-03T08:48:17.658Z,8.70
2023-03-03T08:50:46.512Z,8.40
2023-03-03T08:53:16.230Z,8.20
2023-03-03T08:55:45.214Z,8.40
2023-03-03T08:58:13.522Z,8.40
2023-03-03T09:00:41.994Z,8.50
2023-03-03T09:03:10.610Z,9.00
2023-03-03T09:05:41.638Z,9.40
2023-03-03T09:08:10.710Z,9.10
2023-03-03T09:10:39.235Z,9.20
2023-03-03T09:13:14.991Z,9.30
2023-03-03T09:15:43.383Z,9.40
2023-03-03T09:18:20.386Z,9.50
2023-03-03T09:20:51.476Z,9.60
2023-03-03T09:23:37.750Z,9.60
2023-03-03T09:26:30.930Z,9.70
2023-03-03T09:29:26.204Z,9.70
2023-03-03T09:31:56.825Z,9.60
2023-03-03T09:34:30.381Z,9.60
2023-03-03T09:37:00.584Z,9.60
2023-03-03T09:39:32.268Z,9.70
2023-03-03T09:42:46.615Z,9.40
2023-03-03T09:45:53.208Z,9.50
2023-03-03T09:48:43.860Z,10.10
2023-03-03T09:51:46.375Z,10.40
2023-03-03T09:54:36.067Z,10.60
2023-03-03T09:57:15.866Z,11.20
2023-03-03T10:00:08.318Z,11.80
2023-03-03T10:02:59.991Z,11.70
2023-03-03T10:05:46.518Z,11.20
2023-03-03T10:08:38.207Z,11.30
2023-03-03T10:11:23.078Z,11.80
2023-03-03T10:14:15.195Z,12.00
2023-03-03T10:17:06.526Z,11.90
2023-03-03T10:19:41.115Z,11.90
2023-03-03T10:22:24.314Z,11.70
2023-03-03T10:25:16.535Z,11.20
2023-03-03T10:28:30.304Z,10.90
2023-03-03T10:31:15.565Z,10.60
2023-03-03T10:34:00.333Z,11.40
2023-03-03T10:36:46.970Z,11.80
2023-03-03T10:39:41.937Z,12.10
2023-03-03T10:42:32.236Z,12.00
2023-03-03T10:45:45.162Z,12.10
2023-03-03T10:48:42.639Z,12.30
2023-03-03T10:51:27.906Z,12.90
2023-03-03T10:54:17.417Z,13.20
2023-03-03T10:56:57.848Z,13.70
2023-03-03T11:00:00.068Z,13.50
2023-03-03T11:02:42.123Z,13.30
2023-03-03T11:05:33.856Z,12.70
2023-03-03T11:08:10.464Z,11.90
2023-03-03T11:11:05.877Z,12.20
2023-03-03T11:13:47.115Z,12.70
2023-03-03T11:16:47.204Z,12.50
2023-03-03T11:19:58.673Z,12.80
2023-03-03T11:22:40.640Z,12.20
2023-03-03T11:25:28.543Z,12.40
2023-03-03T11:28:28.431Z,12.40
2023-03-03T11:31:22.419Z,12.80
2023-03-03T11:34:06.660Z,12.50
2023-03-03T11:36:43.288Z,12.80
2023-03-03T11:39:17.386Z,12.20
2023-03-03T11:42:03.101Z,12.50
2023-03-03T11:44:37.135Z,12.50
2023-03-03T11:47:18.213Z,12.70
2023-03-03T11:49:54.975Z,12.80
2023-03-03T11:52:35.270Z,12.70
2023-03-03T11:55:12.993Z,12.90
2023-03-03T11:57:46.313Z,12.90
2023-03-03T12:00:27.595Z,13.00
2023-03-03T12:03:11.981Z,12.80
2023-03-03T12:06:07.927Z,12.70
2023-03-03T12:08:58.989Z,12.60
2023-03-03T12:11:33.445Z,12.30
2023-03-03T12:14:14.227Z,12.40
2023-03-03T12:16:56.564Z,12.60
2023-03-03T12:19:41.004Z,12.60
2023-03-03T12:22:31.699Z,12.40
2023-03-03T12:25:24.041Z,12.50
2023-03-03T12:28:01.893Z,12.40
2023-03-03T12:31:16.983Z,12.60
2023-03-03T12:33:57.807Z,12.50
2023-03-03T12:37:05.351Z,12.30
2023-03-03T12:39:51.715Z,12.20
2023-03-03T12:42:39.110Z,12.40
2023-03-03T12:45:28.729Z,12.70
2023-03-03T12:48:06.758Z,12.30
2023-03-03T12:50:49.809Z,12.30
2023-03-03T12:53:35.272Z,12.40
2023-03-03T12:56:08.964Z,12.10
2023-03-03T12:58:51.558Z,12.20
2023-03-03T13:01:47.048Z,12.50
2023-03-03T13:04:35.089Z,12.70
2023-03-03T13:07:15.792Z,12.40
2023-03-03T13:10:03.914Z,12.30
2023-03-03T13:12:41.875Z,12.20
2023-03-03T13:15:24.849Z,12.20
2023-03-03T13:18:16.845Z,12.10
2023-03-03T13:20:52.706Z,12.40
2023-03-03T13:23:38.313Z,12.50
2023-03-03T13:26:15.396Z,12.50
2023-03-03T13:28:53.293Z,12.60
2023-03-03T13:31:27.937Z,12.50
2023-03-03T13:33:58.840Z,12.60
2023-03-03T13:36:35.862Z,12.80
2023-03-03T13:39:19.404Z,12.70
2023-03-03T13:41:58.026Z,12.40
2023-03-03T13:44:35.527Z,12.80
2023-03-03T13:47:19.678Z,12.70
2023-03-03T13:50:19.472Z,12.90
2023-03-03T13:53:07.462Z,13.00
2023-03-03T13:55:43.530Z,12.70
2023-03-03T13:58:28.591Z,12.40
2023-03-03T14:01:04.609Z,12.40
2023-03-03T14:04:26.838Z,12.90
2023-03-03T14:07:02.630Z,12.90
2023-03-03T14:09:51.982Z,12.60
2023-03-03T14:12:30.475Z,12.10
2023-03-03T14:15:08.209Z,12.00
2023-03-03T14:17:55.645Z,12.00
2023-03-03T14:20:30.850Z,11.90
2023-03-03T14:23:03.804Z,12.00
2023-03-03T14:25:58.882Z,12.10
2023-03-03T14:28:30.627Z,12.10
2023-03-03T14:31:03.093Z,12.10
2023-03-03T14:33:32.590Z,12.10
2023-03-03T14:36:30.481Z,12.00
2023-03-03T14:38:58.939Z,11.90
2023-03-03T14:41:41.319Z,11.90
2023-03-03T14:44:30.204Z,12.00
2023-03-03T14:47:24.226Z,12.20
2023-03-03T14:49:54.676Z,12.10
2023-03-03T14:52:29.688Z,12.10
2023-03-03T14:55:00.882Z,12.10
2023-03-03T14:57:47.189Z,12.10
2023-03-03T15:00:36.535Z,12.00
2023-03-03T15:03:22.495Z,12.10
2023-03-03T15:05:52.623Z,12.20
2023-03-03T15:08:34.056Z,12.10
2023-03-03T15:11:26.757Z,12.00
2023-03-03T15:14:05.127Z,12.20
2023-03-03T15:16:36.084Z,12.10
2023-03-03T15:19:34.197Z,12.00
2023-03-03T15:22:16.513Z,12.00
2023-03-03T15:24:58.130Z,12.00
2023-03-03T15:27:36.398Z,12.00
2023-03-03T15:30:22.713Z,12.10
2023-03-03T15:33:02.657Z,12.00
2023-03-03T15:35:48.226Z,11.90
2023-03-03T15:38:38.982Z,12.00
2023-03-03T15:41:26.660Z,12.10
2023-03-03T15:44:10.048Z,12.10
2023-03-03T15:46:59.100Z,12.00
2023-03-03T15:50:09.707Z,11.90
2023-03-03T15:52:57.760Z,11.70
2023-03-03T15:55:48.720Z,11.60
2023-03-03T15:59:04.150Z,11.50
2023-03-03T16:01:35.846Z,11.30
2023-03-03T16:04:12.609Z,11.10
2023-03-03T16:06:50.686Z,11.10
2023-03-03T16:09:37.565Z,11.00
2023-03-03T16:12:22.507Z,10.80
2023-03-03T16:15:21.743Z,10.70
2023-03-03T16:18:03.934Z,10.60
2023-03-03T16:20:41.154Z,10.30
2023-03-03T16:23:28.477Z,10.20
2023-03-03T16:26:09.910Z,10.10
2023-03-03T16:29:00.426Z,9.80
2023-03-03T16:31:38.369Z,9.70
2023-03-03T16:34:18.168Z,9.60
2023-03-03T16:37:06.573Z,9.50
2023-03-03T16:39:55.144Z,9.30
2023-03-03T16:42:29.225Z,9.10
2023-03-03T16:45:25.521Z,9.00
2023-03-03T16:48:14.676Z,8.70
2023-03-03T16:50:55.171Z,8.60
2023-03-03T16:53:44.123Z,8.50
2023-03-03T16:56:20.765Z,8.40
2023-03-03T16:59:14.605Z,8.20
2023-03-03T17:01:56.900Z,8.00
2023-03-03T17:04:47.344Z,7.60
2023-03-03T17:07:40.111Z,7.10
2023-03-03T17:10:26.260Z,7.00
2023-03-03T17:13:22.047Z,6.80
2023-03-03T17:16:06.056Z,6.70
2023-03-03T17:18:51.463Z,6.60
2023-03-03T17:21:39.793Z,6.50
2023-03-03T17:24:24.370Z,6.20
2023-03-03T17:27:11.482Z,6.00
2023-03-03T17:30:11.529Z,6.10
2023-03-03T17:33:15.066Z,6.20
2023-03-03T17:36:09.141Z,6.00
2023-03-03T17:38:55.541Z,5.90
2023-03-03T17:41:34.450Z,5.80
2023-03-03T17:44:13.993Z,5.70
2023-03-03T17:46:48.404Z,5.70
2023-03-03T17:49:47.440Z,5.70
2023-03-03T17:53:00.763Z,5.60
2023-03-03T17:55:48.259Z,5.50
2023-03-03T17:58:50.806Z,5.30
2023-03-03T18:01:37.074Z,4.90
2023-03-03T18:04:40.838Z,4.50
2023-03-03T18:07:37.065Z,4.30
2023-03-03T18:10:46.700Z,4.10
2023-03-03T18:13:51.189Z,4.10
2023-03-03T18:16:36.963Z,4.20
2023-03-03T18:19:31.301Z,4.10
2023-03-03T18:22:07.959Z,4.10
2023-03-03T18:24:40.758Z,4.10
2023-03-03T18:27:44.569Z,4.20
2023-03-03T18:30:29.070Z,4.20
2023-03-03T18:33:10.207Z,4.30
2023-03-03T18:35:41.928Z,4.20
2023-03-03T18:38:42.782Z,4.20
2023-03-03T18:41:13.413Z,4.10
2023-03-03T18:44:04.721Z,3.90
2023-03-03T18:46:53.050Z,3.70
2023-03-03T18:50:06.586Z,3.60
2023-03-03T18:52:36.973Z,3.50
2023-03-03T18:55:27.703Z,3.50
2023-03-03T18:58:30.212Z,3.60
2023-03-03T19:01:04.199Z,3.70
2023-03-03T19:03:39.265Z,3.80
2023-03-03T19:06:11.482Z,3.90
2023-03-03T19:08:56.278Z,3.90
2023-03-03T19:11:41.818Z,3.80
2023-03-03T19:14:31.444Z,3.80
2023-03-03T19:17:20.873Z,3.80
2023-03-03T19:20:12.276Z,3.80
2023-03-03T19:22:47.905Z,3.80
2023-03-03T19:25:28.098Z,3.80
2023-03-03T19:28:28.865Z,3.70
2023-03-03T19:31:02.204Z,3.50
2023-03-03T19:33:41.705Z,3.30
2023-03-03T19:36:30.711Z,3.30
2023-03-03T19:39:27.368Z,3.50
2023-03-03T19:42:17.284Z,3.50
2023-03-03T19:45:06.739Z,3.40
2023-03-03T19:47:43.679Z,3.20
2023-03-03T19:50:34.473Z,2.90
2023-03-03T19:53:19.466Z,2.70
2023-03-03T19:56:07.345Z,2.60
2023-03-03T19:59:05.775Z,2.50
2023-03-03T20:01:53.613Z,2.40
2023-03-03T20:04:54.355Z,2.30
2023-03-03T20:07:34.240Z,2.30
2023-03-03T20:10:36.577Z,2.20
2023-03-03T20:13:21.844Z,2.20
2023-03-03T20:16:02.242Z,2.20
2023-03-03T20:19:02.393Z,2.20
2023-03-03T20:21:37.082Z,2.30
2023-03-03T20:24:42.544Z,2.30
2023-03-03T20:27:19.941Z,2.30
2023-03-03T20:30:08.356Z,2.30
2023-03-03T20:33:00.888Z,2.20
2023-03-03T20:35:43.468Z,2.10
2023-03-03T20:38:27.046Z,2.00
2023-03-03T20:41:09.802Z,1.90
2023-03-03T20:44:00.308Z,1.90
2023-03-03T20:46:42.320Z,1.80
2023-03-03T20:49:40.051Z,1.70
2023-03-03T20:52:18.736Z,1.60
2023-03-03T20:55:00.339Z,1.50
2023-03-03T20:57:41.959Z,1.40
2023-03-03T21:00:22.999Z,1.30
2023-03-03T21:03:06.189Z,1.20
2023-03-03T21:05:34.417Z,1.10
2023-03-03T21:08:05.032Z,1.00
2023-03-03T21:10:35.648Z,0.90
2023-03-03T21:13:29.406Z,0.80
2023-03-03T21:16:04.026Z,0.80
2023-03-03T21:18:32.268Z,0.70
2023-03-03T21:21:00.483Z,0.60
2023-03-03T21:23:28.627Z,0.50
2023-03-03T21:25:58.988Z,0.40
2023-03-03T21:28:29.896Z,0.40
2023-03-03T21:31:13.159Z,0.40
2023-03-03T21:33:59.262Z,0.30
2023-03-03T21:36:47.925Z,0.20
2023-03-03T21:39:27.335Z,0.10
2023-03-03T21:41:58.984Z,-0.10
2023-03-03T21:44:40.151Z,-0.30
2023-03-03T21:47:11.875Z,-0.40
2023-03-03T21:49:43.491Z,-0.40
2023-03-03T21:52:13.316Z,-0.40
2023-03-03T21:54:41.838Z,-0.50
2023-03-03T21:57:10.364Z,-0.60
2023-03-03T21:59:38.472Z,-0.60
2023-03-03T22:02:07.289Z,-0.60
2023-03-03T22:04:38.738Z,-0.50
2023-03-03T22:07:07.192Z,-0.50
2023-03-03T22:09:35.747Z,-0.50
2023-03-03T22:12:06.277Z,-0.50
2023-03-03T22:14:34.582Z,-0.40
2023-03-03T22:17:03.466Z,-0.40
2023-03-03T22:19:34.156Z,-0.50
2023-03-03T22:22:03.883Z,-0.60
2023-03-03T22:24:32.871Z,-0.80
2023-03-03T22:27:01.105Z,-0.90
2023-03-03T22:29:29.512Z,-1.00
2023-03-03T22:31:58.018Z,-0.90
2023-03-03T22:34:26.383Z,-0.90
2023-03-03T22:36:56.154Z,-1.00
2023-03-03T22:39:25.951Z,-0.90
2023-03-03T22:41:54.186Z,-0.90
2023-03-03T22:44:22.514Z,-0.90
2023-03-03T22:46:50.887Z,-1.10
2023-03-03T22:49:19.269Z,-1.10
2023-03-03T22:51:47.587Z,-1.10
2023-03-03T22:54:15.804Z,-1.00
2023-03-03T22:56:45.404Z,-1.00
2023-03-03T22:59:13.631Z,-1.00
2023-03-03T23:01:41.958Z,-1.00
2023-03-03T23:04:10.119Z,-1.10
2023-03-03T23:06:38.256Z,-1.10
2023-03-03T23:09:07.868Z,-1.20
2023-03-03T23:11:35.962Z,-1.20
2023-03-03T23:14:05.662Z,-1.30
2023-03-03T23:16:33.934Z,-1.30
2023-03-03T23:19:02.613Z,-1.40
2023-03-03T23:21:30.732Z,-1.40
2023-03-03T23:23:59.016Z,-1.40
2023-03-03T23:26:27.263Z,-1.40
2023-03-03T23:28:55.456Z,-1.50
2023-03-03T23:31:26.398Z,-1.50
2023-03-03T23:33:54.751Z,-1.60
2023-03-03T23:36:23.007Z,-1.70
2023-03-03T23:38:51.276Z,-2.00
2023-03-03T23:41:19.420Z,-2.00
2023-03-03T23:43:47.726Z,-2.10
2023-03-03T23:46:16.136Z,-2.20
2023-03-03T23:48:46.018Z,-2.20
2023-03-03T23:51:14.199Z,-2.20
2023-03-03T23:53:42.399Z,-2.10
2023-03-03T23:56:10.555Z,-2.00
2023-03-03T23:58:38.701Z,-2.00
